createdAt,value
2023-02-13T00:01:03.487Z,7.16
2023-02-13T00:03:31.411Z,7.15
2023-02-13T00:05:59.306Z,7.14
2023-02-13T00:08:27.484Z,7.16
2023-02-13T00:10:55.741Z,7.17
2023-02-13T00:13:23.839Z,7.16
2023-02-13T00:15:59.355Z,7.17
2023-02-13T00:18:28.155Z,7.17
2023-02-13T00:21:03.093Z,7.17
2023-02-13T00:23:31.705Z,7.15
2023-02-13T00:26:00.014Z,7.13
2023-02-13T00:28:28.210Z,7.12
2023-02-13T00:31:02.715Z,7.11
2023-02-13T00:33:30.909Z,7.10
2023-02-13T00:36:05.122Z,7.10
2023-02-13T00:38:33.406Z,7.11
2023-02-13T00:41:01.236Z,7.13
2023-02-13T00:43:29.097Z,7.14
2023-02-13T00:45:58.659Z,7.14
2023-02-13T00:48:28.917Z,7.14
2023-02-13T00:50:57.888Z,7.12
2023-02-13T00:53:26.396Z,7.12
2023-02-13T00:55:54.334Z,7.11
2023-02-13T00:58:22.159Z,7.11
2023-02-13T01:00:52.163Z,7.11
2023-02-13T01:03:20.805Z,7.11
2023-02-13T01:05:49.196Z,7.12
2023-02-13T01:08:18.110Z,7.12
2023-02-13T01:10:47.602Z,7.11
2023-02-13T01:13:16.566Z,7.10
2023-02-13T01:15:45.236Z,7.07
2023-02-13T01:18:15.213Z,7.04
2023-02-13T01:20:44.135Z,7.02
2023-02-13T01:23:12.658Z,7.00
2023-02-13T01:25:41.901Z,6.99
2023-02-13T01:28:09.855Z,6.97
2023-02-13T01:30:37.894Z,6.95
2023-02-13T01:33:05.687Z,6.94
2023-02-13T01:35:33.582Z,6.95
2023-02-13T01:38:01.338Z,6.93
2023-02-13T01:40:30.281Z,6.91
2023-02-13T01:42:58.132Z,6.87
2023-02-13T01:45:27.995Z,6.83
2023-02-13T01:48:07.257Z,6.80
2023-02-13T01:50:40.237Z,6.78
2023-02-13T01:53:10.890Z,6.76
2023-02-13T01:55:50.662Z,6.74
2023-02-13T01:58:21.275Z,6.75
2023-02-13T02:00:50.083Z,6.74
2023-02-13T02:03:30.391Z,6.73
2023-02-13T02:05:59.334Z,6.73
2023-02-13T02:08:27.495Z,6.70
2023-02-13T02:10:58.473Z,6.68
2023-02-13T02:13:26.932Z,6.68
2023-02-13T02:15:55.093Z,6.68
2023-02-13T02:18:24.204Z,6.67
2023-02-13T02:21:10.516Z,6.66
2023-02-13T02:23:58.103Z,6.67
2023-02-13T02:26:31.932Z,6.65
2023-02-13T02:29:08.960Z,6.64
2023-02-13T02:31:36.956Z,6.64
2023-02-13T02:34:13.876Z,6.64
2023-02-13T02:37:03.255Z,6.63
2023-02-13T02:39:40.509Z,6.62
2023-02-13T02:42:27.358Z,6.61
2023-02-13T02:45:17.340Z,6.60
2023-02-13T02:48:13.170Z,6.57
2023-02-13T02:50:40.927Z,6.57
2023-02-13T02:53:08.898Z,6.57
2023-02-13T02:55:43.564Z,6.57
2023-02-13T02:58:36.463Z,6.55
2023-02-13T03:01:25.215Z,6.54
2023-02-13T03:04:15.144Z,6.52
2023-02-13T03:06:52.827Z,6.51
2023-02-13T03:09:43.066Z,6.50
2023-02-13T03:12:32.024Z,6.49
2023-02-13T03:14:59.945Z,6.49
2023-02-13T03:17:46.994Z,6.48
2023-02-13T03:20:33.532Z,6.46
2023-02-13T03:23:04.312Z,6.45
2023-02-13T03:25:34.864Z,6.42
2023-02-13T03:28:25.895Z,6.41
2023-02-13T03:30:53.678Z,6.38
2023-02-13T03:33:30.616Z,6.37
2023-02-13T03:36:28.424Z,6.37
2023-02-13T03:39:00.646Z,6.36
2023-02-13T03:41:54.854Z,6.35
2023-02-13T03:44:32.064Z,6.34
2023-02-13T03:47:01.643Z,6.33
2023-02-13T03:49:54.577Z,6.32
2023-02-13T03:52:29.648Z,6.31
2023-02-13T03:55:23.181Z,6.30
2023-02-13T03:58:11.718Z,6.29
2023-02-13T04:00:41.041Z,6.28
2023-02-13T04:03:19.848Z,6.26
2023-02-13T04:05:50.079Z,6.25
2023-02-13T04:08:18.092Z,6.25
2023-02-13T04:11:06.053Z,6.24
2023-02-13T04:13:37.053Z,6.27
2023-02-13T04:16:13.705Z,6.28
2023-02-13T04:18:42.509Z,6.28
2023-02-13T04:21:10.306Z,6.27
2023-02-13T04:23:38.144Z,6.25
2023-02-13T04:26:08.329Z,6.24
2023-02-13T04:28:36.432Z,6.24
2023-02-13T04:31:04.408Z,6.25
2023-02-13T04:33:32.612Z,6.26
2023-02-13T04:36:00.484Z,6.25
2023-02-13T04:38:28.424Z,6.24
2023-02-13T04:40:56.500Z,6.24
2023-02-13T04:43:25.476Z,6.23
2023-02-13T04:45:53.449Z,6.23
2023-02-13T04:48:21.345Z,6.21
2023-02-13T04:50:49.222Z,6.17
2023-02-13T04:53:17.737Z,6.14
2023-02-13T04:55:45.723Z,6.11
2023-02-13T04:58:13.703Z,6.10
2023-02-13T05:00:41.725Z,6.09
2023-02-13T05:03:11.355Z,6.10
2023-02-13T05:05:40.087Z,6.12
2023-02-13T05:08:08.671Z,6.12
2023-02-13T05:10:37.105Z,6.12
2023-02-13T05:13:05.100Z,6.12
2023-02-13T05:15:33.163Z,6.12
2023-02-13T05:18:03.969Z,6.11
2023-02-13T05:20:31.748Z,6.10
2023-02-13T05:23:18.487Z,6.09
2023-02-13T05:25:48.084Z,6.09
2023-02-13T05:28:35.373Z,6.09
2023-02-13T05:31:03.556Z,6.08
2023-02-13T05:33:32.385Z,6.07
2023-02-13T05:36:00.329Z,6.08
2023-02-13T05:38:28.786Z,6.09
2023-02-13T05:40:59.330Z,6.10
2023-02-13T05:43:28.234Z,6.11
2023-02-13T05:46:06.566Z,6.11
2023-02-13T05:48:34.902Z,6.11
2023-02-13T05:51:02.682Z,6.10
2023-02-13T05:53:30.751Z,6.07
2023-02-13T05:55:58.468Z,6.06
2023-02-13T05:58:26.553Z,6.05
2023-02-13T06:00:56.384Z,6.04
2023-02-13T06:03:26.156Z,6.03
2023-02-13T06:05:54.773Z,6.03
2023-02-13T06:08:23.300Z,6.02
2023-02-13T06:10:51.291Z,6.01
2023-02-13T06:13:19.152Z,6.00
2023-02-13T06:15:47.445Z,5.98
2023-02-13T06:18:16.417Z,5.97
2023-02-13T06:20:44.417Z,5.94
2023-02-13T06:23:12.414Z,5.92
2023-02-13T06:25:40.746Z,5.90
2023-02-13T06:28:08.589Z,5.90
2023-02-13T06:30:36.773Z,5.88
2023-02-13T06:33:04.787Z,5.88
2023-02-13T06:35:32.599Z,5.87
2023-02-13T06:38:02.048Z,5.88
2023-02-13T06:40:30.239Z,5.89
2023-02-13T06:42:58.546Z,5.88
2023-02-13T06:45:26.643Z,5.88
2023-02-13T06:47:54.399Z,5.88
2023-02-13T06:50:22.384Z,5.87
2023-02-13T06:52:51.305Z,5.86
2023-02-13T06:55:20.911Z,5.85
2023-02-13T06:57:48.803Z,5.83
2023-02-13T07:00:17.704Z,5.81
2023-02-13T07:02:46.297Z,5.82
2023-02-13T07:05:15.210Z,5.83
2023-02-13T07:07:43.359Z,5.84
2023-02-13T07:10:12.895Z,5.86
2023-02-13T07:12:44.597Z,5.89
2023-02-13T07:15:13.694Z,5.91
2023-02-13T07:17:41.633Z,5.93
2023-02-13T07:20:09.950Z,5.94
2023-02-13T07:22:37.902Z,5.94
2023-02-13T07:25:05.920Z,5.93
2023-02-13T07:27:34.180Z,5.93
2023-02-13T07:30:02.112Z,5.92
2023-02-13T07:32:30.029Z,5.90
2023-02-13T07:35:02.112Z,5.88
2023-02-13T07:37:31.628Z,5.89
2023-02-13T07:39:59.537Z,5.89
2023-02-13T07:42:27.797Z,5.89
2023-02-13T07:44:55.790Z,5.90
2023-02-13T07:47:23.772Z,5.90
2023-02-13T07:49:51.741Z,5.90
2023-02-13T07:52:19.486Z,5.91
2023-02-13T07:54:47.647Z,5.92
2023-02-13T07:57:16.396Z,5.94
2023-02-13T07:59:44.470Z,5.95
2023-02-13T08:02:14.074Z,5.96
2023-02-13T08:04:46.398Z,5.96
2023-02-13T08:07:15.484Z,5.98
2023-02-13T08:10:05.147Z,6.00
2023-02-13T08:12:35.856Z,6.03
2023-02-13T08:15:04.237Z,6.04
2023-02-13T08:17:32.111Z,6.07
2023-02-13T08:20:00.067Z,6.11
2023-02-13T08:22:27.907Z,6.14
2023-02-13T08:24:55.841Z,6.16
2023-02-13T08:27:24.349Z,6.19
2023-02-13T08:29:52.080Z,6.22
2023-02-13T08:32:20.123Z,6.24
2023-02-13T08:34:48.327Z,6.24
2023-02-13T08:37:16.567Z,6.24
2023-02-13T08:39:44.595Z,6.27
2023-02-13T08:42:15.738Z,6.31
2023-02-13T08:44:44.454Z,6.37
2023-02-13T08:47:12.530Z,6.41
2023-02-13T08:49:40.522Z,6.46
2023-02-13T08:52:09.355Z,6.51
2023-02-13T08:54:37.249Z,6.56
2023-02-13T08:57:06.556Z,6.63
2023-02-13T08:59:34.433Z,6.71
2023-02-13T09:02:02.537Z,6.78
2023-02-13T09:04:30.479Z,6.82
2023-02-13T09:06:58.393Z,6.85
2023-02-13T09:09:26.292Z,6.89
2023-02-13T09:11:57.820Z,6.94
2023-02-13T09:14:25.927Z,7.01
2023-02-13T09:16:53.851Z,7.06
2023-02-13T09:19:21.712Z,7.11
2023-02-13T09:21:49.612Z,7.18
2023-02-13T09:24:17.440Z,7.26
2023-02-13T09:26:45.183Z,7.33
2023-02-13T09:29:13.022Z,7.42
2023-02-13T09:31:41.029Z,7.55
2023-02-13T09:34:08.825Z,7.66
2023-02-13T09:36:36.607Z,7.77
2023-02-13T09:39:04.511Z,7.83
2023-02-13T09:41:43.160Z,7.88
2023-02-13T09:44:50.176Z,7.94
2023-02-13T09:47:21.198Z,7.98
2023-02-13T09:49:50.847Z,8.01
2023-02-13T09:52:19.007Z,8.06
2023-02-13T09:54:47.017Z,8.10
2023-02-13T09:57:24.833Z,8.13
2023-02-13T10:00:13.466Z,8.17
2023-02-13T10:02:45.684Z,8.17
2023-02-13T10:05:13.558Z,8.11
2023-02-13T10:07:53.763Z,8.12
2023-02-13T10:10:32.469Z,8.14
2023-02-13T10:13:00.314Z,8.15
2023-02-13T10:16:07.065Z,8.16
2023-02-13T10:18:41.946Z,8.16
2023-02-13T10:21:12.565Z,8.19
2023-02-13T10:23:50.296Z,8.24
2023-02-13T10:26:23.250Z,8.28
2023-02-13T10:29:15.972Z,8.33
2023-02-13T10:31:45.947Z,8.36
2023-02-13T10:34:17.744Z,8.40
2023-02-13T10:36:46.448Z,8.44
2023-02-13T10:39:14.274Z,8.49
2023-02-13T10:41:51.070Z,8.52
2023-02-13T10:44:26.489Z,8.57
2023-02-13T10:47:18.934Z,8.59
2023-02-13T10:50:05.373Z,8.62
2023-02-13T10:52:42.152Z,8.64
2023-02-13T10:55:22.189Z,8.69
2023-02-13T10:58:02.112Z,8.73
2023-02-13T11:00:32.960Z,8.76
2023-02-13T11:03:00.948Z,8.81
2023-02-13T11:05:32.197Z,8.84
2023-02-13T11:08:00.782Z,8.89
2023-02-13T11:10:28.972Z,8.95
2023-02-13T11:12:56.824Z,8.99
2023-02-13T11:15:26.153Z,9.04
2023-02-13T11:17:56.335Z,9.10
2023-02-13T11:20:24.173Z,9.16
2023-02-13T11:22:52.115Z,9.18
2023-02-13T11:25:25.207Z,9.21
2023-02-13T11:28:05.056Z,9.25
2023-02-13T11:30:39.074Z,9.30
2023-02-13T11:33:09.834Z,9.36
2023-02-13T11:35:38.388Z,9.37
2023-02-13T11:38:15.683Z,9.41
2023-02-13T11:40:49.616Z,9.48
2023-02-13T11:43:19.836Z,9.51
2023-02-13T11:45:47.820Z,9.54
2023-02-13T11:48:21.329Z,9.59
2023-02-13T11:50:53.892Z,9.65
2023-02-13T11:53:28.359Z,9.71
2023-02-13T11:56:05.640Z,9.80
2023-02-13T11:58:34.034Z,9.87
2023-02-13T12:01:24.213Z,9.86
2023-02-13T12:04:03.743Z,9.88
2023-02-13T12:06:39.618Z,9.92
2023-02-13T12:09:12.386Z,10.02
2023-02-13T12:11:46.004Z,10.07
2023-02-13T12:14:20.393Z,10.15
2023-02-13T12:17:03.912Z,10.22
2023-02-13T12:19:31.854Z,10.29
2023-02-13T12:22:08.963Z,10.32
2023-02-13T12:24:49.904Z,10.38
2023-02-13T12:27:29.810Z,10.45
2023-02-13T12:30:18.293Z,10.49
2023-02-13T12:32:53.210Z,10.53
2023-02-13T12:35:39.910Z,10.58
2023-02-13T12:38:32.070Z,10.64
2023-02-13T12:41:00.372Z,10.69
2023-02-13T12:43:48.025Z,10.73
2023-02-13T12:46:31.204Z,10.77
2023-02-13T12:48:59.393Z,10.81
2023-02-13T12:51:34.974Z,10.86
2023-02-13T12:54:03.104Z,10.89
2023-02-13T12:56:50.082Z,10.90
2023-02-13T12:59:17.944Z,10.93
2023-02-13T13:01:54.822Z,10.96
2023-02-13T13:04:22.652Z,10.95
2023-02-13T13:06:53.402Z,10.96
2023-02-13T13:09:40.577Z,10.99
2023-02-13T13:12:17.817Z,11.02
2023-02-13T13:15:08.932Z,11.05
2023-02-13T13:17:55.818Z,11.05
2023-02-13T13:20:42.446Z,11.07
2023-02-13T13:23:10.398Z,11.13
2023-02-13T13:25:48.295Z,11.14
2023-02-13T13:28:19.453Z,11.16
2023-02-13T13:30:48.067Z,11.17
2023-02-13T13:33:20.663Z,11.15
2023-02-13T13:35:54.748Z,11.17
2023-02-13T13:38:36.152Z,11.19
2023-02-13T13:41:21.267Z,11.20
2023-02-13T13:44:03.413Z,11.22
2023-02-13T13:46:46.215Z,11.27
2023-02-13T13:49:27.212Z,11.30
2023-02-13T13:52:09.278Z,11.32
2023-02-13T13:54:37.523Z,11.36
2023-02-13T13:57:06.805Z,11.40
2023-02-13T13:59:34.499Z,11.46
2023-02-13T14:02:18.008Z,11.49
2023-02-13T14:05:02.035Z,11.55
2023-02-13T14:07:34.793Z,11.59
2023-02-13T14:10:02.889Z,11.58
2023-02-13T14:12:30.652Z,11.57
2023-02-13T14:14:59.490Z,11.59
2023-02-13T14:17:43.137Z,11.61
2023-02-13T14:20:49.672Z,11.61
2023-02-13T14:23:35.615Z,11.65
2023-02-13T14:26:15.822Z,11.70
2023-02-13T14:28:49.522Z,11.74
2023-02-13T14:31:23.323Z,11.74
2023-02-13T14:33:56.132Z,11.70
2023-02-13T14:36:32.252Z,11.69
2023-02-13T14:39:16.469Z,11.70
2023-02-13T14:41:44.681Z,11.68
2023-02-13T14:44:20.348Z,11.66
2023-02-13T14:46:51.244Z,11.67
2023-02-13T14:49:30.589Z,11.67
2023-02-13T14:51:58.626Z,11.67
2023-02-13T14:54:26.407Z,11.66
2023-02-13T14:56:59.198Z,11.63
2023-02-13T14:59:35.320Z,11.63
2023-02-13T15:02:07.097Z,11.62
2023-02-13T15:04:41.188Z,11.60
2023-02-13T15:07:18.275Z,11.62
2023-02-13T15:09:51.808Z,11.64
2023-02-13T15:12:34.244Z,11.68
2023-02-13T15:15:03.624Z,11.70
2023-02-13T15:17:38.416Z,11.71
2023-02-13T15:20:10.127Z,11.71
2023-02-13T15:22:39.804Z,11.71
2023-02-13T15:25:08.444Z,11.70
2023-02-13T15:27:40.658Z,11.69
2023-02-13T15:30:24.508Z,11.69
2023-02-13T15:33:03.105Z,11.68
2023-02-13T15:35:33.493Z,11.64
2023-02-13T15:38:17.407Z,11.61
2023-02-13T15:40:45.339Z,11.59
2023-02-13T15:43:43.204Z,11.58
2023-02-13T15:46:19.990Z,11.52
2023-02-13T15:48:48.276Z,11.50
2023-02-13T15:51:23.603Z,11.47
2023-02-13T15:53:56.160Z,11.42
2023-02-13T15:56:26.138Z,11.38
2023-02-13T15:58:55.595Z,11.36
2023-02-13T16:01:24.158Z,11.32
2023-02-13T16:04:12.315Z,11.27
2023-02-13T16:06:44.173Z,11.22
2023-02-13T16:09:27.295Z,11.15
2023-02-13T16:11:57.465Z,11.05
2023-02-13T16:14:26.938Z,10.97
2023-02-13T16:16:54.800Z,10.90
2023-02-13T16:19:24.257Z,10.81
2023-02-13T16:21:53.439Z,10.74
2023-02-13T16:24:22.556Z,10.67
2023-02-13T16:26:50.513Z,10.60
2023-02-13T16:29:22.820Z,10.54
2023-02-13T16:31:52.431Z,10.47
2023-02-13T16:34:24.731Z,10.41
2023-02-13T16:36:53.160Z,10.34
2023-02-13T16:39:27.161Z,10.27
2023-02-13T16:41:55.105Z,10.20
2023-02-13T16:44:22.934Z,10.12
2023-02-13T16:46:54.927Z,10.05
2023-02-13T16:49:24.699Z,9.97
2023-02-13T16:51:55.685Z,9.89
2023-02-13T16:54:32.179Z,9.80
2023-02-13T16:57:02.881Z,9.70
2023-02-13T16:59:57.186Z,9.61
2023-02-13T17:02:29.207Z,9.52
2023-02-13T17:05:10.147Z,9.45
2023-02-13T17:08:04.088Z,9.38
2023-02-13T17:10:34.102Z,9.30
2023-02-13T17:13:03.916Z,9.23
2023-02-13T17:15:32.318Z,9.16
2023-02-13T17:18:00.587Z,9.08
2023-02-13T17:20:30.480Z,9.01
2023-02-13T17:22:59.857Z,8.92
2023-02-13T17:25:29.575Z,8.86
2023-02-13T17:28:00.531Z,8.81
2023-02-13T17:30:32.887Z,8.75
2023-02-13T17:33:03.564Z,8.72
2023-02-13T17:35:32.507Z,8.67
2023-02-13T17:38:00.223Z,8.62
2023-02-13T17:40:30.339Z,8.56
2023-02-13T17:42:58.920Z,8.50
2023-02-13T17:45:28.466Z,8.41
2023-02-13T17:47:59.570Z,8.35
2023-02-13T17:50:28.365Z,8.30
2023-02-13T17:52:57.373Z,8.26
2023-02-13T17:55:26.700Z,8.20
2023-02-13T17:57:58.459Z,8.15
2023-02-13T18:00:28.318Z,8.10
2023-02-13T18:02:56.857Z,8.04
2023-02-13T18:05:24.877Z,7.98
2023-02-13T18:07:52.764Z,7.90
2023-02-13T18:10:21.813Z,7.82
2023-02-13T18:12:50.607Z,7.73
2023-02-13T18:15:19.182Z,7.65
2023-02-13T18:17:47.144Z,7.56
2023-02-13T18:20:16.596Z,7.47
2023-02-13T18:22:44.997Z,7.41
2023-02-13T18:25:13.426Z,7.36
2023-02-13T18:27:41.666Z,7.32
2023-02-13T18:30:11.548Z,7.26
2023-02-13T18:32:39.337Z,7.20
2023-02-13T18:35:08.759Z,7.15
2023-02-13T18:37:36.532Z,7.09
2023-02-13T18:40:06.252Z,7.04
2023-02-13T18:42:34.251Z,6.99
2023-02-13T18:45:03.223Z,6.93
2023-02-13T18:47:31.274Z,6.87
2023-02-13T18:49:59.353Z,6.80
2023-02-13T18:52:27.359Z,6.74
2023-02-13T18:54:55.700Z,6.69
2023-02-13T18:57:23.733Z,6.66
2023-02-13T18:59:51.976Z,6.63
2023-02-13T19:02:19.919Z,6.60
2023-02-13T19:04:47.774Z,6.58
2023-02-13T19:07:15.777Z,6.56
2023-02-13T19:09:44.474Z,6.56
2023-02-13T19:12:12.343Z,6.55
2023-02-13T19:14:40.170Z,6.54
2023-02-13T19:17:08.649Z,6.53
2023-02-13T19:19:37.003Z,6.52
2023-02-13T19:22:04.868Z,6.51
2023-02-13T19:24:32.907Z,6.51
2023-02-13T19:27:00.829Z,6.50
2023-02-13T19:29:28.777Z,6.48
2023-02-13T19:31:56.992Z,6.42
2023-02-13T19:34:24.811Z,6.37
2023-02-13T19:36:52.749Z,6.30
2023-02-13T19:39:20.675Z,6.24
2023-02-13T19:41:48.518Z,6.16
2023-02-13T19:44:19.848Z,6.08
2023-02-13T19:46:47.981Z,6.01
2023-02-13T19:49:16.735Z,5.97
2023-02-13T19:51:46.647Z,5.95
2023-02-13T19:54:15.394Z,5.90
2023-02-13T19:56:43.980Z,5.86
2023-02-13T19:59:13.555Z,5.83
2023-02-13T20:01:42.988Z,5.79
2023-02-13T20:04:11.467Z,5.76
2023-02-13T20:06:39.444Z,5.74
2023-02-13T20:09:09.993Z,5.71
2023-02-13T20:11:38.993Z,5.66
2023-02-13T20:14:11.840Z,5.63
2023-02-13T20:16:40.278Z,5.59
2023-02-13T20:19:11.632Z,5.56
2023-02-13T20:21:41.643Z,5.54
2023-02-13T20:24:10.820Z,5.51
2023-02-13T20:26:39.295Z,5.49
2023-02-13T20:29:07.837Z,5.46
2023-02-13T20:31:36.149Z,5.44
2023-02-13T20:34:06.039Z,5.43
2023-02-13T20:36:34.414Z,5.41
2023-02-13T20:39:04.106Z,5.39
2023-02-13T20:41:33.903Z,5.39
2023-02-13T20:44:04.029Z,5.38
2023-02-13T20:46:32.834Z,5.37
2023-02-13T20:49:00.741Z,5.37
2023-02-13T20:51:29.721Z,5.37
2023-02-13T20:53:59.100Z,5.37
2023-02-13T20:56:28.412Z,5.36
2023-02-13T20:58:57.951Z,5.35
2023-02-13T21:01:37.402Z,5.35
2023-02-13T21:04:05.368Z,5.34
2023-02-13T21:06:34.891Z,5.34
2023-02-13T21:09:03.221Z,5.33
2023-02-13T21:11:32.626Z,5.32
2023-02-13T21:14:01.046Z,5.29
2023-02-13T21:16:30.460Z,5.26
2023-02-13T21:18:59.769Z,5.25
2023-02-13T21:21:29.226Z,5.23
2023-02-13T21:23:59.840Z,5.21
2023-02-13T21:26:29.301Z,5.19
2023-02-13T21:28:57.821Z,5.15
2023-02-13T21:31:30.684Z,5.13
2023-02-13T21:33:59.759Z,5.08
2023-02-13T21:36:27.585Z,5.03
2023-02-13T21:38:56.195Z,4.99
2023-02-13T21:41:24.497Z,4.96
2023-02-13T21:43:52.772Z,4.92
2023-02-13T21:46:28.836Z,4.90
2023-02-13T21:48:58.187Z,4.88
2023-02-13T21:51:27.841Z,4.86
2023-02-13T21:53:56.348Z,4.84
2023-02-13T21:56:26.467Z,4.81
2023-02-13T21:58:54.578Z,4.78
2023-02-13T22:01:26.982Z,4.76
2023-02-13T22:03:59.834Z,4.74
2023-02-13T22:06:29.498Z,4.73
2023-02-13T22:09:04.100Z,4.72
2023-02-13T22:11:31.987Z,4.69
2023-02-13T22:14:02.798Z,4.67
2023-02-13T22:16:32.703Z,4.64
2023-02-13T22:19:01.209Z,4.63
2023-02-13T22:21:31.820Z,4.62
2023-02-13T22:24:00.301Z,4.60
2023-02-13T22:26:29.499Z,4.57
2023-02-13T22:29:05.087Z,4.55
2023-02-13T22:31:33.149Z,4.53
2023-02-13T22:34:04.421Z,4.50
2023-02-13T22:36:33.846Z,4.47
2023-02-13T22:39:02.008Z,4.46
2023-02-13T22:41:30.218Z,4.44
2023-02-13T22:43:58.318Z,4.42
2023-02-13T22:46:27.509Z,4.41
2023-02-13T22:48:55.422Z,4.39
2023-02-13T22:51:24.629Z,4.37
2023-02-13T22:53:54.278Z,4.34
2023-02-13T22:56:23.543Z,4.32
2023-02-13T22:58:51.777Z,4.31
2023-02-13T23:01:21.391Z,4.31
2023-02-13T23:03:49.681Z,4.31
2023-02-13T23:06:17.835Z,4.29
2023-02-13T23:08:45.675Z,4.28
2023-02-13T23:11:34.071Z,4.28
2023-02-13T23:14:02.784Z,4.25
2023-02-13T23:16:51.021Z,4.21
2023-02-13T23:19:20.592Z,4.18
2023-02-13T23:21:48.715Z,4.15
2023-02-13T23:24:17.008Z,4.13
2023-02-13T23:26:44.874Z,4.11
2023-02-13T23:29:12.894Z,4.09
2023-02-13T23:31:40.963Z,4.08
2023-02-13T23:34:09.322Z,4.07
2023-02-13T23:36:37.097Z,4.05
2023-02-13T23:39:05.101Z,4.03
2023-02-13T23:41:32.930Z,4.03
2023-02-13T23:44:01.274Z,4.03
2023-02-13T23:46:29.168Z,4.03
2023-02-13T23:48:57.096Z,4.03
2023-02-13T23:51:25.803Z,4.01
2023-02-13T23:53:56.350Z,3.99
2023-02-13T23:56:24.873Z,3.96
2023-02-13T23:58:55.605Z,3.95
